createdAt,value
2018-12-15T00:01:16.873Z,94738.60
2018-12-15T00:03:48.261Z,94734.20
2018-12-15T00:06:19.610Z,94732.34
2018-12-15T00:08:50.063Z,94733.53
2018-12-15T00:11:19.407Z,94729.95
2018-12-15T00:13:48.572Z,94729.66
2018-12-15T00:16:17.914Z,94737.70
2018-12-15T00:18:47.382Z,94741.58
2018-12-15T00:21:16.711Z,94734.39
2018-12-15T00:23:46.016Z,94735.25
2018-12-15T00:26:15.379Z,94731.77
2018-12-15T00:28:44.575Z,94726.50
2018-12-15T00:31:13.782Z,94728.02
2018-12-15T00:33:43.219Z,94723.75
2018-12-15T00:36:12.479Z,94725.70
2018-12-15T00:38:42.033Z,94719.18
2018-12-15T00:41:11.295Z,94719.17
2018-12-15T00:43:40.679Z,94715.72
2018-12-15T00:46:10.000Z,94719.47
2018-12-15T00:48:40.756Z,94685.52
2018-12-15T00:51:09.970Z,94725.14
2018-12-15T00:53:39.232Z,94716.49
2018-12-15T00:56:08.462Z,94712.61
2018-12-15T00:58:37.749Z,94720.06
2018-12-15T01:01:07.014Z,94720.83
2018-12-15T01:03:36.392Z,94727.80
2018-12-15T01:06:05.696Z,94718.57
2018-12-15T01:08:34.946Z,94716.39
2018-12-15T01:11:04.164Z,94716.59
2018-12-15T01:13:33.582Z,94737.16
2018-12-15T01:16:02.991Z,94723.83
2018-12-15T01:18:32.193Z,94703.00
2018-12-15T01:21:01.474Z,94716.97
2018-12-15T01:23:30.735Z,94708.24
2018-12-15T01:25:59.905Z,94710.59
2018-12-15T01:28:29.247Z,94711.41
2018-12-15T01:30:58.572Z,94707.20
2018-12-15T01:33:27.925Z,94701.08
2018-12-15T01:35:57.191Z,94702.84
2018-12-15T01:38:26.480Z,94709.59
2018-12-15T01:40:55.753Z,94703.95
2018-12-15T01:43:25.049Z,94694.54
2018-12-15T01:45:54.345Z,94690.08
2018-12-15T01:48:23.646Z,94695.89
2018-12-15T01:50:52.823Z,94699.39
2018-12-15T01:53:22.249Z,94699.37
2018-12-15T01:55:51.778Z,94703.23
2018-12-15T01:58:21.148Z,94701.39
2018-12-15T02:00:50.569Z,94706.64
2018-12-15T02:03:20.044Z,94703.17
2018-12-15T02:05:49.432Z,94694.02
2018-12-15T02:08:19.118Z,94689.94
2018-12-15T02:10:50.617Z,94682.60
2018-12-15T02:13:20.875Z,94678.86
2018-12-15T02:15:50.191Z,94689.11
2018-12-15T02:18:19.684Z,94691.05
2018-12-15T02:20:48.980Z,94691.08
2018-12-15T02:23:18.401Z,94688.03
2018-12-15T02:25:47.622Z,94690.61
2018-12-15T02:28:16.896Z,94689.25
2018-12-15T02:30:47.640Z,94681.16
2018-12-15T02:33:17.029Z,94694.66
2018-12-15T02:35:46.346Z,94683.28
2018-12-15T02:38:15.706Z,94697.91
2018-12-15T02:40:45.003Z,94689.95
2018-12-15T02:43:14.301Z,94686.31
2018-12-15T02:45:43.654Z,94684.31
2018-12-15T02:48:14.158Z,94675.83
2018-12-15T02:50:43.431Z,94682.45
2018-12-15T02:53:12.829Z,94680.61
2018-12-15T02:55:42.080Z,94676.47
2018-12-15T02:58:11.384Z,94674.91
2018-12-15T03:00:40.789Z,94677.47
2018-12-15T03:03:10.128Z,94677.64
2018-12-15T03:05:39.464Z,94672.85
2018-12-15T03:08:08.888Z,94678.45
2018-12-15T03:10:38.215Z,94673.21
2018-12-15T03:13:07.725Z,94671.43
2018-12-15T03:15:37.006Z,94667.70
2018-12-15T03:18:06.380Z,94681.23
2018-12-15T03:20:35.669Z,94684.73
2018-12-15T03:23:05.215Z,94695.20
2018-12-15T03:25:34.412Z,94693.70
2018-12-15T03:28:03.864Z,94694.23
2018-12-15T03:30:33.205Z,94704.89
2018-12-15T03:33:02.698Z,94693.84
2018-12-15T03:35:32.132Z,94687.69
2018-12-15T03:38:01.330Z,94688.11
2018-12-15T03:40:30.784Z,94692.21
2018-12-15T03:43:00.002Z,94684.31
2018-12-15T03:45:29.235Z,94689.47
2018-12-15T03:47:58.573Z,94691.64
2018-12-15T03:50:28.132Z,94696.36
2018-12-15T03:52:57.442Z,94686.02
2018-12-15T03:55:26.830Z,94681.98
2018-12-15T03:57:56.133Z,94678.03
2018-12-15T04:00:25.568Z,94672.25
2018-12-15T04:02:54.825Z,94696.02
2018-12-15T04:05:24.124Z,94685.01
2018-12-15T04:07:53.421Z,94687.17
2018-12-15T04:10:22.729Z,94688.84
2018-12-15T04:12:52.024Z,94682.44
2018-12-15T04:15:21.265Z,94677.28
2018-12-15T04:17:50.624Z,94679.63
2018-12-15T04:20:19.905Z,94680.58
2018-12-15T04:22:49.135Z,94679.32
2018-12-15T04:25:18.352Z,94683.73
2018-12-15T04:27:47.624Z,94686.92
2018-12-15T04:30:16.961Z,94686.15
2018-12-15T04:32:46.252Z,94684.75
2018-12-15T04:35:15.536Z,94687.87
2018-12-15T04:37:44.818Z,94685.20
2018-12-15T04:40:14.219Z,94679.25
2018-12-15T04:42:43.538Z,94673.37
2018-12-15T04:45:13.993Z,94680.79
2018-12-15T04:47:43.537Z,94684.45
2018-12-15T04:50:12.821Z,94676.36
2018-12-15T04:52:42.172Z,94685.34
2018-12-15T04:55:11.408Z,94697.63
2018-12-15T04:57:40.741Z,94687.20
2018-12-15T05:00:10.277Z,94692.82
2018-12-15T05:02:43.755Z,94690.51
2018-12-15T05:05:11.138Z,94685.61
2018-12-15T05:07:40.351Z,94682.72
2018-12-15T05:10:09.804Z,94685.29
2018-12-15T05:12:39.100Z,94688.00
2018-12-15T05:15:08.341Z,94686.42
2018-12-15T05:17:37.746Z,94680.53
2018-12-15T05:20:07.529Z,94686.38
2018-12-15T05:22:36.889Z,94688.27
2018-12-15T05:25:07.312Z,94692.38
2018-12-15T05:27:36.692Z,94691.81
2018-12-15T05:30:06.281Z,94690.70
2018-12-15T05:32:35.524Z,94691.27
2018-12-15T05:35:04.889Z,94686.30
2018-12-15T05:37:34.263Z,94687.23
2018-12-15T05:40:03.849Z,94694.20
2018-12-15T05:42:33.221Z,94690.67
2018-12-15T05:45:02.541Z,94690.30
2018-12-15T05:47:31.929Z,94685.28
2018-12-15T05:50:01.230Z,94679.42
2018-12-15T05:52:30.649Z,94670.89
2018-12-15T05:54:59.944Z,94676.95
2018-12-15T05:57:36.083Z,94686.67
2018-12-15T06:00:06.701Z,94689.81
2018-12-15T06:02:36.499Z,94675.16
2018-12-15T06:05:06.556Z,94681.73
2018-12-15T06:07:35.880Z,94677.09
2018-12-15T06:10:05.726Z,94678.69
2018-12-15T06:12:35.033Z,94675.30
2018-12-15T06:15:04.920Z,94672.02
2018-12-15T06:17:34.499Z,94684.70
2018-12-15T06:20:04.180Z,94676.67
2018-12-15T06:22:33.566Z,94677.44
2018-12-15T06:25:02.848Z,94689.39
2018-12-15T06:27:32.174Z,94703.03
2018-12-15T06:30:01.447Z,94685.84
2018-12-15T06:32:31.648Z,94689.84
2018-12-15T06:35:01.036Z,94690.02
2018-12-15T06:37:30.267Z,94703.85
2018-12-15T06:39:59.627Z,94706.43
2018-12-15T06:42:29.399Z,94696.07
2018-12-15T06:44:58.759Z,94698.53
2018-12-15T06:47:28.293Z,94699.34
2018-12-15T06:49:57.716Z,94707.71
2018-12-15T06:52:27.248Z,94705.56
2018-12-15T06:54:56.517Z,94701.84
2018-12-15T06:57:25.949Z,94705.02
2018-12-15T06:59:55.443Z,94719.84
2018-12-15T07:02:24.903Z,94713.49
2018-12-15T07:04:54.430Z,94706.25
2018-12-15T07:07:23.897Z,94716.42
2018-12-15T07:09:53.238Z,94710.92
2018-12-15T07:12:22.501Z,94731.33
2018-12-15T07:14:52.035Z,94716.66
2018-12-15T07:17:21.460Z,94727.66
2018-12-15T07:19:50.850Z,94710.04
2018-12-15T07:22:20.209Z,94733.45
2018-12-15T07:24:49.616Z,94724.25
2018-12-15T07:27:18.818Z,94742.95
2018-12-15T07:29:48.143Z,94744.43
2018-12-15T07:32:17.536Z,94737.73
2018-12-15T07:34:46.807Z,94736.42
2018-12-15T07:37:16.251Z,94730.06
2018-12-15T07:39:45.455Z,94740.05
2018-12-15T07:42:14.636Z,94734.06
2018-12-15T07:44:45.194Z,94738.45
2018-12-15T07:47:14.436Z,94723.03
2018-12-15T07:49:43.980Z,94735.02
2018-12-15T07:52:13.553Z,94729.14
2018-12-15T07:54:42.841Z,94744.88
2018-12-15T07:57:12.168Z,94729.77
2018-12-15T07:59:41.799Z,94756.69
2018-12-15T08:02:11.168Z,94735.72
2018-12-15T08:04:40.767Z,94753.87
2018-12-15T08:07:10.407Z,94758.64
2018-12-15T08:09:39.683Z,94737.25
2018-12-15T08:12:14.527Z,94753.80
2018-12-15T08:14:43.916Z,94736.36
2018-12-15T08:17:13.202Z,94741.84
2018-12-15T08:19:42.739Z,94738.86
2018-12-15T08:22:12.057Z,94739.14
2018-12-15T08:24:41.736Z,94735.14
2018-12-15T08:27:11.076Z,94741.16
2018-12-15T08:29:40.414Z,94744.05
2018-12-15T08:32:09.732Z,94745.76
2018-12-15T08:34:39.003Z,94749.23
2018-12-15T08:37:08.237Z,94735.25
2018-12-15T08:39:37.701Z,94733.26
2018-12-15T08:42:07.040Z,94739.45
2018-12-15T08:44:36.825Z,94744.68
2018-12-15T08:47:07.374Z,94731.97
2018-12-15T08:49:36.565Z,94738.47
2018-12-15T08:52:06.254Z,94735.05
2018-12-15T08:54:35.746Z,94736.55
2018-12-15T08:57:04.915Z,94736.81
2018-12-15T08:59:34.563Z,94669.30
2018-12-15T09:02:03.926Z,94734.69
2018-12-15T09:04:33.459Z,94723.39
2018-12-15T09:07:02.988Z,94723.72
2018-12-15T09:09:32.364Z,94719.86
2018-12-15T09:12:01.689Z,94716.98
2018-12-15T09:14:31.408Z,94716.41
2018-12-15T09:17:01.717Z,94711.22
2018-12-15T09:19:31.243Z,94704.58
2018-12-15T09:22:01.056Z,94709.63
2018-12-15T09:24:30.421Z,94700.40
2018-12-15T09:26:59.736Z,94693.40
2018-12-15T09:29:29.260Z,94693.75
2018-12-15T09:31:58.579Z,94690.44
2018-12-15T09:34:27.808Z,94687.44
2018-12-15T09:36:57.371Z,94690.53
2018-12-15T09:39:26.811Z,94686.98
2018-12-15T09:41:56.108Z,94680.19
2018-12-15T09:44:25.763Z,94680.95
2018-12-15T09:46:56.096Z,94672.81
2018-12-15T09:49:25.463Z,94677.11
2018-12-15T09:51:54.733Z,94683.84
2018-12-15T09:54:24.962Z,94683.89
2018-12-15T09:56:55.551Z,94671.73
2018-12-15T09:59:24.923Z,94676.62
2018-12-15T10:01:54.223Z,94672.06
2018-12-15T10:04:23.861Z,94678.24
2018-12-15T10:06:53.052Z,94677.09
2018-12-15T10:09:22.299Z,94683.76
2018-12-15T10:11:51.980Z,94675.88
2018-12-15T10:14:21.255Z,94662.51
2018-12-15T10:16:50.479Z,94669.27
2018-12-15T10:19:24.210Z,94664.61
2018-12-15T10:21:51.327Z,94693.75
2018-12-15T10:24:20.831Z,94668.64
2018-12-15T10:26:50.018Z,94661.52
2018-12-15T10:29:24.763Z,94661.38
2018-12-15T10:31:59.479Z,94663.89
2018-12-15T10:34:30.144Z,94658.86
2018-12-15T10:36:59.511Z,94640.41
2018-12-15T10:39:28.765Z,94648.84
2018-12-15T10:41:58.406Z,94642.83
2018-12-15T10:44:27.647Z,94648.56
2018-12-15T10:46:56.836Z,94633.38
2018-12-15T10:49:30.790Z,94633.11
2018-12-15T10:51:59.662Z,94618.03
2018-12-15T10:54:29.231Z,94622.58
2018-12-15T10:56:58.515Z,94616.44
2018-12-15T10:59:27.750Z,94619.57
2018-12-15T11:01:57.565Z,94603.08
2018-12-15T11:04:26.733Z,94600.92
2018-12-15T11:06:57.497Z,94599.57
2018-12-15T11:09:26.778Z,94591.63
2018-12-15T11:11:56.058Z,94585.38
2018-12-15T11:14:25.716Z,94594.81
2018-12-15T11:16:54.994Z,94595.55
2018-12-15T11:19:24.252Z,94599.28
2018-12-15T11:21:53.912Z,94601.09
2018-12-15T11:24:23.175Z,94587.45
2018-12-15T11:26:52.512Z,94583.16
2018-12-15T11:29:22.054Z,94563.88
2018-12-15T11:31:51.401Z,94577.60
2018-12-15T11:34:20.658Z,94568.86
2018-12-15T11:36:50.144Z,94571.25
2018-12-15T11:39:19.282Z,94570.77
2018-12-15T11:41:48.956Z,94562.30
2018-12-15T11:44:18.401Z,94569.23
2018-12-15T11:46:47.728Z,94577.58
2018-12-15T11:49:17.015Z,94578.28
2018-12-15T11:51:46.442Z,94576.97
2018-12-15T11:54:15.637Z,94560.08
2018-12-15T11:56:44.884Z,94561.61
2018-12-15T11:59:14.664Z,94553.67
2018-12-15T12:01:43.921Z,94555.12
2018-12-15T12:04:13.103Z,94555.15
2018-12-15T12:06:42.865Z,94548.90
2018-12-15T12:09:12.068Z,94549.94
2018-12-15T12:11:41.475Z,94535.30
2018-12-15T12:14:10.754Z,94530.06
2018-12-15T12:16:39.952Z,94532.95
2018-12-15T12:19:09.322Z,94396.47
2018-12-15T12:21:38.754Z,94530.98
2018-12-15T12:24:07.947Z,94544.79
2018-12-15T12:26:39.522Z,94525.97
2018-12-15T12:29:08.763Z,94533.33
2018-12-15T12:31:38.186Z,94542.02
2018-12-15T12:34:08.343Z,94540.48
2018-12-15T12:36:38.752Z,94538.94
2018-12-15T12:39:08.286Z,94541.12
2018-12-15T12:41:37.556Z,94537.84
2018-12-15T12:44:06.843Z,94538.64
2018-12-15T12:46:36.389Z,94538.69
2018-12-15T12:49:05.576Z,94544.08
2018-12-15T12:51:34.739Z,94543.37
2018-12-15T12:54:04.357Z,94531.36
2018-12-15T12:56:33.637Z,94544.30
2018-12-15T12:59:02.813Z,94542.41
2018-12-15T13:01:32.477Z,94550.75
2018-12-15T13:04:01.804Z,94546.84
2018-12-15T13:06:31.044Z,94535.59
2018-12-15T13:09:00.510Z,94532.16
2018-12-15T13:11:29.781Z,94539.27
2018-12-15T13:13:59.212Z,94547.73
2018-12-15T13:16:28.631Z,94551.63
2018-12-15T13:18:57.813Z,94553.63
2018-12-15T13:21:27.208Z,94554.27
2018-12-15T13:23:56.595Z,94553.38
2018-12-15T13:26:25.832Z,94563.34
2018-12-15T13:28:55.527Z,94546.30
2018-12-15T13:31:24.778Z,94543.51
2018-12-15T13:33:53.966Z,94553.34
2018-12-15T13:36:24.722Z,94552.50
2018-12-15T13:38:53.975Z,94567.67
2018-12-15T13:41:23.279Z,94570.08
2018-12-15T13:43:52.520Z,94559.66
2018-12-15T13:46:21.759Z,94547.27
2018-12-15T13:48:51.494Z,94531.83
2018-12-15T13:51:20.713Z,94546.80
2018-12-15T13:53:50.384Z,94562.09
2018-12-15T13:56:19.649Z,94577.73
2018-12-15T13:58:48.973Z,94576.98
2018-12-15T14:01:18.557Z,94560.83
2018-12-15T14:03:47.857Z,94566.11
2018-12-15T14:06:17.011Z,94570.16
2018-12-15T14:08:46.810Z,94560.70
2018-12-15T14:11:16.061Z,94552.37
2018-12-15T14:13:45.255Z,94561.34
2018-12-15T14:16:14.639Z,94558.84
2018-12-15T14:18:43.845Z,94570.52
2018-12-15T14:21:13.044Z,94565.24
2018-12-15T14:23:42.297Z,94555.81
2018-12-15T14:26:11.580Z,94559.64
2018-12-15T14:28:40.858Z,94545.95
2018-12-15T14:31:10.435Z,94552.30
2018-12-15T14:33:39.618Z,94546.90
2018-12-15T14:36:08.857Z,94545.66
2018-12-15T14:38:38.134Z,94541.98
2018-12-15T14:41:07.524Z,94542.70
2018-12-15T14:43:36.857Z,94541.47
2018-12-15T14:46:06.112Z,94534.78
2018-12-15T14:48:35.382Z,94552.36
2018-12-15T14:51:04.820Z,94532.25
2018-12-15T14:53:34.352Z,94527.09
2018-12-15T14:56:03.784Z,94539.34
2018-12-15T14:58:33.198Z,94552.85
2018-12-15T15:01:02.742Z,94539.69
2018-12-15T15:03:33.091Z,94542.71
2018-12-15T15:06:02.354Z,94541.50
2018-12-15T15:08:31.994Z,94533.50
2018-12-15T15:11:01.222Z,94534.86
2018-12-15T15:13:34.475Z,94532.27
2018-12-15T15:16:01.901Z,94543.11
2018-12-15T15:18:31.219Z,94535.36
2018-12-15T15:21:00.452Z,94542.61
2018-12-15T15:23:29.639Z,94537.87
2018-12-15T15:25:59.654Z,94547.52
2018-12-15T15:28:29.193Z,94530.77
2018-12-15T15:30:58.759Z,94538.95
2018-12-15T15:33:28.164Z,94537.92
2018-12-15T15:35:57.601Z,94554.41
2018-12-15T15:38:27.280Z,94553.41
2018-12-15T15:40:56.637Z,94548.94
2018-12-15T15:43:25.883Z,94549.08
2018-12-15T15:45:56.631Z,94551.96
2018-12-15T15:48:25.815Z,94549.03
2018-12-15T15:50:55.359Z,94548.38
2018-12-15T15:53:24.808Z,94540.91
2018-12-15T15:55:53.967Z,94534.42
2018-12-15T15:58:23.155Z,94525.80
2018-12-15T16:00:52.765Z,94531.03
2018-12-15T16:03:22.055Z,94540.52
2018-12-15T16:05:51.269Z,94532.48
2018-12-15T16:08:20.937Z,94535.74
2018-12-15T16:10:50.214Z,94536.83
2018-12-15T16:13:19.509Z,94528.53
2018-12-15T16:15:49.064Z,94532.14
2018-12-15T16:18:18.399Z,94545.84
2018-12-15T16:20:47.559Z,94533.50
2018-12-15T16:23:17.071Z,94551.44
2018-12-15T16:25:46.294Z,94539.21
2018-12-15T16:28:15.526Z,94554.02
2018-12-15T16:30:45.055Z,94546.99
2018-12-15T16:33:14.324Z,94539.45
2018-12-15T16:35:43.867Z,94548.00
2018-12-15T16:38:13.233Z,94534.52
2018-12-15T16:40:42.537Z,94536.52
2018-12-15T16:43:11.729Z,94535.36
2018-12-15T16:45:41.291Z,94527.85
2018-12-15T16:48:10.451Z,94536.98
2018-12-15T16:50:39.670Z,94538.58
2018-12-15T16:53:09.428Z,94534.28
2018-12-15T16:55:38.712Z,94529.12
2018-12-15T16:58:07.937Z,94530.59
2018-12-15T17:00:37.223Z,94535.50
2018-12-15T17:03:06.437Z,94525.86
2018-12-15T17:05:35.738Z,94526.47
2018-12-15T17:08:05.364Z,94528.83
2018-12-15T17:10:34.658Z,94531.70
2018-12-15T17:13:04.019Z,94525.19
2018-12-15T17:15:33.624Z,94530.53
2018-12-15T17:18:02.831Z,94525.36
2018-12-15T17:20:32.201Z,94532.56
2018-12-15T17:23:01.819Z,94534.69
2018-12-15T17:25:32.251Z,94538.09
2018-12-15T17:28:01.818Z,94533.29
2018-12-15T17:30:31.274Z,94527.28
2018-12-15T17:33:00.518Z,94532.42
2018-12-15T17:35:29.748Z,94529.95
2018-12-15T17:37:58.921Z,94530.09
2018-12-15T17:40:28.460Z,94514.91
2018-12-15T17:42:57.659Z,94518.91
2018-12-15T17:45:26.941Z,94514.19
2018-12-15T17:47:56.485Z,94531.44
2018-12-15T17:50:26.959Z,94537.10
2018-12-15T17:52:56.249Z,94538.88
2018-12-15T17:55:26.957Z,94529.34
2018-12-15T17:57:56.265Z,94535.41
2018-12-15T18:00:25.951Z,94534.30
2018-12-15T18:02:55.284Z,94540.25
2018-12-15T18:05:24.502Z,94530.25
2018-12-15T18:07:53.712Z,94523.89
2018-12-15T18:10:23.067Z,94519.41
2018-12-15T18:12:52.402Z,94516.53
2018-12-15T18:15:21.676Z,94518.84
2018-12-15T18:17:50.926Z,94515.47
2018-12-15T18:20:20.229Z,94521.00
2018-12-15T18:22:49.759Z,94516.55
2018-12-15T18:25:19.013Z,94526.98
2018-12-15T18:27:49.325Z,94516.05
2018-12-15T18:30:18.561Z,94528.77
2018-12-15T18:32:47.797Z,94526.47
2018-12-15T18:35:17.031Z,94543.16
2018-12-15T18:37:46.359Z,94544.92
2018-12-15T18:40:16.848Z,94538.98
2018-12-15T18:42:46.106Z,94535.30
2018-12-15T18:45:15.398Z,94542.42
2018-12-15T18:47:44.793Z,94533.41
2018-12-15T18:50:14.013Z,94540.14
2018-12-15T18:52:43.407Z,94531.24
2018-12-15T18:55:12.644Z,94532.42
2018-12-15T18:57:42.027Z,94530.64
2018-12-15T19:00:12.830Z,94527.64
2018-12-15T19:02:43.073Z,94529.44
2018-12-15T19:05:12.726Z,94532.53
2018-12-15T19:07:42.082Z,94526.19
2018-12-15T19:10:11.551Z,94522.91
2018-12-15T19:12:40.789Z,94513.97
2018-12-15T19:15:10.645Z,94516.63
2018-12-15T19:17:39.897Z,94516.94
2018-12-15T19:20:09.362Z,94509.02
2018-12-15T19:22:38.579Z,94508.39
2018-12-15T19:25:08.002Z,94519.46
2018-12-15T19:27:37.312Z,94519.59
2018-12-15T19:30:07.581Z,94517.72
2018-12-15T19:32:37.827Z,94510.01
2018-12-15T19:35:07.218Z,94512.34
2018-12-15T19:37:36.454Z,94524.34
2018-12-15T19:40:06.435Z,94504.14
2018-12-15T19:42:35.780Z,94515.56
2018-12-15T19:45:06.315Z,94511.58
2018-12-15T19:47:35.782Z,94505.53
2018-12-15T19:50:06.289Z,94499.70
2018-12-15T19:52:35.572Z,94501.31
2018-12-15T19:55:05.589Z,94498.53
2018-12-15T19:57:35.860Z,94506.31
2018-12-15T20:00:05.912Z,94497.91
2018-12-15T20:02:36.158Z,94505.83
2018-12-15T20:05:05.931Z,94508.91
2018-12-15T20:07:35.359Z,94507.89
2018-12-15T20:10:04.944Z,94496.32
2018-12-15T20:12:34.379Z,94505.52
2018-12-15T20:15:03.774Z,94493.13
2018-12-15T20:17:33.864Z,94503.86
2018-12-15T20:20:03.183Z,94493.66
2018-12-15T20:22:32.522Z,94493.47
2018-12-15T20:25:01.771Z,94505.97
2018-12-15T20:27:31.236Z,94504.64
2018-12-15T20:30:00.518Z,94500.89
2018-12-15T20:32:29.740Z,94504.77
2018-12-15T20:34:58.992Z,94501.80
2018-12-15T20:37:28.293Z,94498.83
2018-12-15T20:39:57.507Z,94506.16
2018-12-15T20:42:26.811Z,94506.29
2018-12-15T20:44:56.131Z,94495.83
2018-12-15T20:47:28.036Z,94496.78
2018-12-15T20:49:56.707Z,94506.24
2018-12-15T20:52:26.234Z,94493.92
2018-12-15T20:54:55.458Z,94488.09
2018-12-15T20:57:24.767Z,94493.30
2018-12-15T20:59:54.090Z,94496.97
2018-12-15T21:02:23.369Z,94491.45
2018-12-15T21:04:52.640Z,94488.94
2018-12-15T21:07:22.254Z,94493.60
2018-12-15T21:09:51.511Z,94486.37
2018-12-15T21:12:20.881Z,94481.11
2018-12-15T21:14:50.485Z,94480.80
2018-12-15T21:17:19.753Z,94480.89
2018-12-15T21:19:49.034Z,94485.02
2018-12-15T21:22:18.670Z,94470.39
2018-12-15T21:24:47.971Z,94441.77
2018-12-15T21:27:17.499Z,94435.17
2018-12-15T21:29:46.676Z,94454.95
2018-12-15T21:32:15.946Z,94458.92
2018-12-15T21:34:45.495Z,94458.84
2018-12-15T21:37:14.858Z,94464.47
2018-12-15T21:39:44.202Z,94470.31
2018-12-15T21:42:13.490Z,94479.26
2018-12-15T21:44:42.861Z,94474.48
2018-12-15T21:47:12.158Z,94468.64
2018-12-15T21:49:41.402Z,94466.75
2018-12-15T21:52:10.641Z,94463.97
2018-12-15T21:54:39.932Z,94462.98
2018-12-15T21:57:09.298Z,94460.13
2018-12-15T21:59:38.772Z,94462.11
2018-12-15T22:02:08.170Z,94467.92
2018-12-15T22:04:37.647Z,94475.77
2018-12-15T22:07:09.857Z,94468.04
2018-12-15T22:09:39.548Z,94465.38
2018-12-15T22:12:08.842Z,94460.81
2018-12-15T22:14:38.064Z,94453.27
2018-12-15T22:17:07.701Z,94463.67
2018-12-15T22:19:37.000Z,94455.74
2018-12-15T22:22:06.255Z,94446.30
2018-12-15T22:24:35.520Z,94446.09
2018-12-15T22:27:04.933Z,94442.84
2018-12-15T22:29:34.256Z,94422.09
2018-12-15T22:32:03.457Z,94412.55
2018-12-15T22:34:32.664Z,94409.57
2018-12-15T22:37:02.414Z,94419.28
2018-12-15T22:39:31.879Z,94417.03
2018-12-15T22:42:01.200Z,94421.58
2018-12-15T22:44:30.576Z,94421.41
2018-12-15T22:46:59.738Z,94412.64
2018-12-15T22:49:29.027Z,94424.16
2018-12-15T22:51:58.253Z,94427.45
2018-12-15T22:54:27.463Z,94421.18
2018-12-15T22:56:56.690Z,94411.69
2018-12-15T22:59:26.247Z,94399.59
2018-12-15T23:01:55.483Z,94416.10
2018-12-15T23:04:24.769Z,94403.38
2018-12-15T23:06:53.970Z,94408.69
2018-12-15T23:09:23.294Z,94404.70
2018-12-15T23:11:53.009Z,94409.91
2018-12-15T23:14:24.462Z,94398.09
2018-12-15T23:16:53.894Z,94389.37
2018-12-15T23:19:23.080Z,94399.42
2018-12-15T23:21:52.340Z,94390.02
2018-12-15T23:24:21.994Z,94389.33
2018-12-15T23:26:51.632Z,94384.88
2018-12-15T23:29:21.444Z,94392.29
2018-12-15T23:31:50.885Z,94397.25
2018-12-15T23:34:20.061Z,94389.78
2018-12-15T23:36:49.566Z,94389.59
2018-12-15T23:39:18.901Z,94387.82
2018-12-15T23:41:48.233Z,94380.11
2018-12-15T23:44:17.659Z,94376.52
2018-12-15T23:46:47.008Z,94381.20
2018-12-15T23:49:16.767Z,94378.72
2018-12-15T23:51:46.153Z,94372.27
2018-12-15T23:54:15.327Z,94359.53
2018-12-15T23:56:44.987Z,94359.02
2018-12-15T23:59:14.283Z,94355.58
